This is the latest recevied weather packets stored in our database for station/object OE5ERN-10. If no packets are shown the sender has not sent any weather packets the latest 1 day(s).
| Time | Temp. | Humidity | Pressure | Rain* | Wind** | Luminosity | Snow |
|---|---|---|---|---|---|---|---|
| 1778094630 | 16.67° C | 56% | 1009.1 hPa | 0 mm | - | - | - |
| 1778092830 | 17.78° C | 56% | 1008 hPa | 0 mm | - | - | - |
| 1778091930 | 19.44° C | 51% | 1007.9 hPa | 0 mm | - | - | - |
| 1778091030 | 21.67° C | 45% | 1007.5 hPa | 0 mm | - | - | - |
| 1778090130 | 21.67° C | 40% | 1006.6 hPa | 0 mm | - | - | - |
| 1778089230 | 22.22° C | 40% | 1006.1 hPa | 0 mm | - | - | - |
| 1778088330 | 22.78° C | 39% | 1005.7 hPa | 0 mm | - | - | - |
| 1778087430 | 23.89° C | 37% | 1005.1 hPa | 0 mm | - | - | - |
| 1778086530 | 25.56° C | 33% | 1005.1 hPa | 0 mm | - | - | - |
| 1778085630 | 26.67° C | 33% | 1005.3 hPa | 0 mm | - | - | - |
| 1778058631 | 28.33° C | 39% | 1011.1 hPa | 0 mm | - | - | - |
| 1778056831 | 28.89° C | 36% | 1011.6 hPa | 0 mm | - | - | - |
| 1778055931 | 31.11° C | 35% | 1011.6 hPa | 0 mm | - | - | - |
| 1778055031 | 31.11° C | 34% | 1011.5 hPa | 0 mm | - | - | - |
| 1778054131 | 33.89° C | 32% | 1011.7 hPa | 0 mm | - | - | - |
| 1778053231 | 30° C | 43% | 1011.8 hPa | 0 mm | - | - | - |
| 1778052331 | 22.78° C | 54% | 1011.9 hPa | 0 mm | - | - | - |
| 1778051431 | 21.11° C | 57% | 1011.8 hPa | 0 mm | - | - | - |
| 1778050531 | 22.22° C | 52% | 1011.9 hPa | 0 mm | - | - | - |
| 1778049631 | 27.22° C | 46% | 1012.2 hPa | 0 mm | - | - | - |
| 1778048731 | 30° C | 42% | 1012.4 hPa | 0 mm | - | - | - |
| 1778047831 | 25° C | 56% | 1012.5 hPa | 0 mm | - | - | - |
| 1778046931 | 23.89° C | 58% | 1012.6 hPa | 0 mm | - | - | - |
| 1778046031 | 21.11° C | 68% | 1012.4 hPa | 0 mm | - | - | - |
| 1778045131 | 16.11° C | 83% | 1012.3 hPa | 0 mm | - | - | - |
* Rain latest hour (hover to see other rain measurements)
** Current wind speed in m/s (hover to see current wind gust speed)